Decoded Metar for CYQV (YORKTON in SK, CANADA) (IATA:YQV) | Meteo·Mobile Aviation Weather
aviador You're here:

CYQV Decoded Metar

YORKTON in SK, CANADA
Report Time2019-05-23 10:00:00
UTC Time2019-05-23 10:57:08
Flight Rules vfr VFR
Wind360° at 02 kt
W.Decomp.*RWY 03: 1.5 kt HW 1.3 kt LCW
RWY 30: 1.3 kt HW 1.5 kt RCW
Visibility9999 m
Phenomena:N/A
Clouds:Few 140 Hf
Expected CloudBase > 1,200 ft AGL from Temp-Dew spread
CeilingNone
Temp05°C (ISA -7)
Dew Point02°C (81% RH)
AAT2.6°C
QNH1018 hPa
Density Alt755 ft
Elevation1,634 ft
Report Wrong Elevation
Raw Report
CYQV 231000Z AUTO 36002KT 9SM FEW140 05/02 A3006 RMK SLP191=

Extra information for CYQV:More info

Metar Taf Metar & Taf Last 4 Metars F.Rules Stats Wind Profile Meteogram Temp Stats Airport Information Weather charts Add Link Nearby VenuesMetar ALERT Operation Metar Decoded Social comments